sensor_id;sensor_type;location;lat;lon;timestamp;P1;durP1;ratioP1;P2;durP2;ratioP2
66619;SDS011;53484;51.356;6.732;2022-12-31T00:00:54;4.25;;;0.70;;
66619;SDS011;53484;51.356;6.732;2022-12-31T00:03:20;1.73;;;0.50;;
66619;SDS011;53484;51.356;6.732;2022-12-31T00:05:46;3.35;;;0.50;;
66619;SDS011;53484;51.356;6.732;2022-12-31T00:08:13;2.53;;;0.70;;
66619;SDS011;53484;51.356;6.732;2022-12-31T00:10:39;2.43;;;0.60;;
66619;SDS011;53484;51.356;6.732;2022-12-31T00:13:07;1.30;;;0.30;;
66619;SDS011;53484;51.356;6.732;2022-12-31T00:15:34;1.58;;;0.50;;
66619;SDS011;53484;51.356;6.732;2022-12-31T00:18:00;2.28;;;0.38;;
66619;SDS011;53484;51.356;6.732;2022-12-31T00:20:27;2.20;;;0.60;;
66619;SDS011;53484;51.356;6.732;2022-12-31T00:22:53;1.37;;;0.50;;
66619;SDS011;53484;51.356;6.732;2022-12-31T00:25:20;2.08;;;0.30;;
66619;SDS011;53484;51.356;6.732;2022-12-31T00:27:46;1.70;;;0.40;;
66619;SDS011;53484;51.356;6.732;2022-12-31T00:30:14;1.45;;;0.30;;
66619;SDS011;53484;51.356;6.732;2022-12-31T00:32:40;1.65;;;0.40;;
66619;SDS011;53484;51.356;6.732;2022-12-31T00:35:07;1.23;;;0.30;;
66619;SDS011;53484;51.356;6.732;2022-12-31T00:37:33;1.77;;;0.60;;
66619;SDS011;53484;51.356;6.732;2022-12-31T00:39:59;2.95;;;0.50;;
66619;SDS011;53484;51.356;6.732;2022-12-31T00:42:27;1.85;;;0.40;;
66619;SDS011;53484;51.356;6.732;2022-12-31T00:44:53;1.90;;;0.43;;
66619;SDS011;53484;51.356;6.732;2022-12-31T00:47:21;2.17;;;0.60;;
66619;SDS011;53484;51.356;6.732;2022-12-31T00:49:48;3.78;;;0.70;;
66619;SDS011;53484;51.356;6.732;2022-12-31T00:52:14;1.80;;;0.57;;
66619;SDS011;53484;51.356;6.732;2022-12-31T00:54:42;1.80;;;0.50;;
66619;SDS011;53484;51.356;6.732;2022-12-31T00:57:08;2.55;;;0.70;;
66619;SDS011;53484;51.356;6.732;2022-12-31T00:59:34;2.27;;;0.70;;
66619;SDS011;53484;51.356;6.732;2022-12-31T01:02:01;2.78;;;1.00;;
66619;SDS011;53484;51.356;6.732;2022-12-31T01:04:28;3.28;;;0.77;;
66619;SDS011;53484;51.356;6.732;2022-12-31T01:06:54;3.05;;;0.98;;
66619;SDS011;53484;51.356;6.732;2022-12-31T01:09:21;1.95;;;0.50;;
66619;SDS011;53484;51.356;6.732;2022-12-31T01:11:48;2.03;;;0.53;;
66619;SDS011;53484;51.356;6.732;2022-12-31T01:14:16;2.28;;;0.57;;
66619;SDS011;53484;51.356;6.732;2022-12-31T01:16:43;4.72;;;1.13;;
66619;SDS011;53484;51.356;6.732;2022-12-31T01:19:11;2.35;;;0.45;;
66619;SDS011;53484;51.356;6.732;2022-12-31T01:21:39;1.33;;;0.40;;
66619;SDS011;53484;51.356;6.732;2022-12-31T01:24:06;2.10;;;0.50;;
66619;SDS011;53484;51.356;6.732;2022-12-31T01:26:33;2.72;;;0.60;;
66619;SDS011;53484;51.356;6.732;2022-12-31T01:28:59;2.85;;;0.32;;
66619;SDS011;53484;51.356;6.732;2022-12-31T01:31:25;2.75;;;0.52;;
66619;SDS011;53484;51.356;6.732;2022-12-31T01:33:52;1.30;;;0.40;;
66619;SDS011;53484;51.356;6.732;2022-12-31T01:36:19;1.80;;;0.63;;
66619;SDS011;53484;51.356;6.732;2022-12-31T01:38:47;4.80;;;0.40;;
66619;SDS011;53484;51.356;6.732;2022-12-31T01:41:14;2.25;;;0.40;;
66619;SDS011;53484;51.356;6.732;2022-12-31T01:43:42;1.92;;;0.30;;
66619;SDS011;53484;51.356;6.732;2022-12-31T01:46:09;1.85;;;0.30;;
66619;SDS011;53484;51.356;6.732;2022-12-31T01:48:35;2.70;;;0.33;;
66619;SDS011;53484;51.356;6.732;2022-12-31T01:51:02;2.38;;;0.30;;
66619;SDS011;53484;51.356;6.732;2022-12-31T01:53:28;1.10;;;0.30;;
66619;SDS011;53484;51.356;6.732;2022-12-31T01:55:56;2.78;;;0.40;;
66619;SDS011;53484;51.356;6.732;2022-12-31T01:58:24;1.65;;;0.30;;
66619;SDS011;53484;51.356;6.732;2022-12-31T02:00:51;0.90;;;0.30;;
66619;SDS011;53484;51.356;6.732;2022-12-31T02:03:18;0.75;;;0.20;;
66619;SDS011;53484;51.356;6.732;2022-12-31T02:05:45;1.05;;;0.30;;
66619;SDS011;53484;51.356;6.732;2022-12-31T02:08:13;2.30;;;0.30;;
66619;SDS011;53484;51.356;6.732;2022-12-31T02:10:39;0.95;;;0.20;;
66619;SDS011;53484;51.356;6.732;2022-12-31T02:13:07;1.27;;;0.30;;
66619;SDS011;53484;51.356;6.732;2022-12-31T02:15:36;1.05;;;0.30;;
66619;SDS011;53484;51.356;6.732;2022-12-31T02:18:05;2.20;;;0.40;;
66619;SDS011;53484;51.356;6.732;2022-12-31T02:20:38;1.00;;;0.30;;
66619;SDS011;53484;51.356;6.732;2022-12-31T02:23:15;1.10;;;0.30;;
66619;SDS011;53484;51.356;6.732;2022-12-31T02:25:52;5.97;;;0.63;;
66619;SDS011;53484;51.356;6.732;2022-12-31T02:28:26;1.17;;;0.30;;
66619;SDS011;53484;51.356;6.732;2022-12-31T02:30:58;1.55;;;0.30;;
66619;SDS011;53484;51.356;6.732;2022-12-31T02:33:26;1.83;;;0.20;;
66619;SDS011;53484;51.356;6.732;2022-12-31T02:35:56;1.55;;;0.30;;
66619;SDS011;53484;51.356;6.732;2022-12-31T02:38:24;1.33;;;0.30;;
66619;SDS011;53484;51.356;6.732;2022-12-31T02:40:52;0.75;;;0.20;;
66619;SDS011;53484;51.356;6.732;2022-12-31T02:43:18;1.30;;;0.30;;
66619;SDS011;53484;51.356;6.732;2022-12-31T02:45:46;0.63;;;0.20;;
66619;SDS011;53484;51.356;6.732;2022-12-31T02:48:20;1.02;;;0.20;;
66619;SDS011;53484;51.356;6.732;2022-12-31T02:50:50;2.33;;;0.20;;
66619;SDS011;53484;51.356;6.732;2022-12-31T02:53:24;1.10;;;0.30;;
66619;SDS011;53484;51.356;6.732;2022-12-31T02:55:56;1.52;;;0.38;;
66619;SDS011;53484;51.356;6.732;2022-12-31T02:58:26;2.42;;;0.30;;
66619;SDS011;53484;51.356;6.732;2022-12-31T03:01:16;1.50;;;0.40;;
66619;SDS011;53484;51.356;6.732;2022-12-31T03:04:02;0.93;;;0.30;;
66619;SDS011;53484;51.356;6.732;2022-12-31T03:06:50;1.00;;;0.30;;
66619;SDS011;53484;51.356;6.732;2022-12-31T03:09:16;1.48;;;0.50;;
66619;SDS011;53484;51.356;6.732;2022-12-31T03:11:43;1.35;;;0.43;;
66619;SDS011;53484;51.356;6.732;2022-12-31T03:14:26;1.20;;;0.40;;
66619;SDS011;53484;51.356;6.732;2022-12-31T03:16:53;1.23;;;0.30;;
66619;SDS011;53484;51.356;6.732;2022-12-31T03:19:20;1.23;;;0.35;;
66619;SDS011;53484;51.356;6.732;2022-12-31T03:22:04;1.67;;;0.32;;
66619;SDS011;53484;51.356;6.732;2022-12-31T03:24:48;1.75;;;0.40;;
66619;SDS011;53484;51.356;6.732;2022-12-31T03:27:32;3.00;;;0.45;;
66619;SDS011;53484;51.356;6.732;2022-12-31T03:29:59;2.70;;;0.30;;
66619;SDS011;53484;51.356;6.732;2022-12-31T03:32:25;1.17;;;0.30;;
66619;SDS011;53484;51.356;6.732;2022-12-31T03:34:52;2.13;;;0.30;;
66619;SDS011;53484;51.356;6.732;2022-12-31T03:37:19;1.38;;;0.28;;
66619;SDS011;53484;51.356;6.732;2022-12-31T03:39:46;1.25;;;0.40;;
66619;SDS011;53484;51.356;6.732;2022-12-31T03:42:12;2.10;;;0.30;;
66619;SDS011;53484;51.356;6.732;2022-12-31T03:44:38;4.20;;;0.40;;
66619;SDS011;53484;51.356;6.732;2022-12-31T03:47:05;1.45;;;0.40;;
66619;SDS011;53484;51.356;6.732;2022-12-31T03:49:31;1.45;;;0.30;;
66619;SDS011;53484;51.356;6.732;2022-12-31T03:51:59;1.65;;;0.40;;
66619;SDS011;53484;51.356;6.732;2022-12-31T03:54:27;1.67;;;0.30;;
66619;SDS011;53484;51.356;6.732;2022-12-31T03:56:53;1.85;;;0.50;;
66619;SDS011;53484;51.356;6.732;2022-12-31T03:59:19;1.70;;;0.40;;
66619;SDS011;53484;51.356;6.732;2022-12-31T04:01:45;3.13;;;0.40;;
66619;SDS011;53484;51.356;6.732;2022-12-31T04:04:12;1.65;;;0.40;;
66619;SDS011;53484;51.356;6.732;2022-12-31T04:06:38;1.93;;;0.40;;
66619;SDS011;53484;51.356;6.732;2022-12-31T04:09:06;2.88;;;0.38;;
66619;SDS011;53484;51.356;6.732;2022-12-31T04:11:32;1.58;;;0.47;;
66619;SDS011;53484;51.356;6.732;2022-12-31T04:13:58;1.88;;;0.40;;
66619;SDS011;53484;51.356;6.732;2022-12-31T04:16:25;2.25;;;0.40;;
66619;SDS011;53484;51.356;6.732;2022-12-31T04:18:51;1.17;;;0.23;;
66619;SDS011;53484;51.356;6.732;2022-12-31T04:21:17;2.55;;;0.35;;
66619;SDS011;53484;51.356;6.732;2022-12-31T04:23:43;1.85;;;0.30;;
66619;SDS011;53484;51.356;6.732;2022-12-31T04:26:11;1.92;;;0.57;;
66619;SDS011;53484;51.356;6.732;2022-12-31T04:28:37;2.53;;;0.40;;
66619;SDS011;53484;51.356;6.732;2022-12-31T04:31:04;3.27;;;0.30;;
66619;SDS011;53484;51.356;6.732;2022-12-31T04:33:30;2.35;;;0.40;;
66619;SDS011;53484;51.356;6.732;2022-12-31T04:35:59;3.15;;;0.40;;
66619;SDS011;53484;51.356;6.732;2022-12-31T04:38:25;2.08;;;0.40;;
66619;SDS011;53484;51.356;6.732;2022-12-31T04:40:53;3.83;;;0.40;;
66619;SDS011;53484;51.356;6.732;2022-12-31T04:43:38;2.13;;;0.37;;
66619;SDS011;53484;51.356;6.732;2022-12-31T04:46:05;1.67;;;0.35;;
66619;SDS011;53484;51.356;6.732;2022-12-31T04:48:31;1.23;;;0.40;;
66619;SDS011;53484;51.356;6.732;2022-12-31T04:50:58;1.73;;;0.40;;
66619;SDS011;53484;51.356;6.732;2022-12-31T04:53:24;2.85;;;0.60;;
66619;SDS011;53484;51.356;6.732;2022-12-31T04:55:50;2.53;;;0.33;;
66619;SDS011;53484;51.356;6.732;2022-12-31T04:58:17;2.17;;;0.50;;
66619;SDS011;53484;51.356;6.732;2022-12-31T05:00:45;1.73;;;0.40;;
66619;SDS011;53484;51.356;6.732;2022-12-31T05:03:13;2.30;;;0.40;;
66619;SDS011;53484;51.356;6.732;2022-12-31T05:05:40;3.92;;;0.80;;
66619;SDS011;53484;51.356;6.732;2022-12-31T05:08:07;2.53;;;0.50;;
66619;SDS011;53484;51.356;6.732;2022-12-31T05:10:34;2.35;;;0.45;;
66619;SDS011;53484;51.356;6.732;2022-12-31T05:13:00;4.40;;;0.50;;
66619;SDS011;53484;51.356;6.732;2022-12-31T05:15:26;2.00;;;0.30;;
66619;SDS011;53484;51.356;6.732;2022-12-31T05:17:54;2.22;;;0.40;;
66619;SDS011;53484;51.356;6.732;2022-12-31T05:20:20;2.07;;;0.33;;
66619;SDS011;53484;51.356;6.732;2022-12-31T05:22:46;3.38;;;0.50;;
66619;SDS011;53484;51.356;6.732;2022-12-31T05:25:13;1.95;;;0.50;;
66619;SDS011;53484;51.356;6.732;2022-12-31T05:27:39;1.75;;;0.50;;
66619;SDS011;53484;51.356;6.732;2022-12-31T05:30:06;2.75;;;0.45;;
66619;SDS011;53484;51.356;6.732;2022-12-31T05:32:32;1.63;;;0.40;;
66619;SDS011;53484;51.356;6.732;2022-12-31T05:35:00;3.42;;;0.50;;
66619;SDS011;53484;51.356;6.732;2022-12-31T05:37:26;1.48;;;0.50;;
66619;SDS011;53484;51.356;6.732;2022-12-31T05:39:53;2.80;;;0.50;;
66619;SDS011;53484;51.356;6.732;2022-12-31T05:42:19;2.78;;;1.05;;
66619;SDS011;53484;51.356;6.732;2022-12-31T05:44:45;2.03;;;0.57;;
66619;SDS011;53484;51.356;6.732;2022-12-31T05:47:12;3.17;;;0.47;;
66619;SDS011;53484;51.356;6.732;2022-12-31T05:49:38;3.72;;;0.70;;
66619;SDS011;53484;51.356;6.732;2022-12-31T05:52:07;1.60;;;0.40;;
66619;SDS011;53484;51.356;6.732;2022-12-31T05:54:34;3.55;;;0.60;;
66619;SDS011;53484;51.356;6.732;2022-12-31T05:57:01;2.73;;;0.70;;
66619;SDS011;53484;51.356;6.732;2022-12-31T05:59:27;2.30;;;0.40;;
66619;SDS011;53484;51.356;6.732;2022-12-31T06:01:54;1.95;;;0.50;;
66619;SDS011;53484;51.356;6.732;2022-12-31T06:04:20;2.90;;;0.55;;
66619;SDS011;53484;51.356;6.732;2022-12-31T06:06:47;2.88;;;0.77;;
66619;SDS011;53484;51.356;6.732;2022-12-31T06:09:15;4.30;;;0.80;;
66619;SDS011;53484;51.356;6.732;2022-12-31T06:11:41;3.35;;;0.55;;
66619;SDS011;53484;51.356;6.732;2022-12-31T06:14:08;2.22;;;0.52;;
66619;SDS011;53484;51.356;6.732;2022-12-31T06:16:34;3.17;;;0.45;;
66619;SDS011;53484;51.356;6.732;2022-12-31T06:19:01;4.63;;;0.50;;
66619;SDS011;53484;51.356;6.732;2022-12-31T06:21:28;1.53;;;0.40;;
66619;SDS011;53484;51.356;6.732;2022-12-31T06:23:54;2.30;;;0.50;;
66619;SDS011;53484;51.356;6.732;2022-12-31T06:26:22;2.42;;;0.93;;
66619;SDS011;53484;51.356;6.732;2022-12-31T06:28:48;3.97;;;0.68;;
66619;SDS011;53484;51.356;6.732;2022-12-31T06:31:14;3.28;;;0.60;;
66619;SDS011;53484;51.356;6.732;2022-12-31T06:33:41;3.07;;;0.50;;
66619;SDS011;53484;51.356;6.732;2022-12-31T06:36:10;2.30;;;0.50;;
66619;SDS011;53484;51.356;6.732;2022-12-31T06:38:37;2.95;;;0.70;;
66619;SDS011;53484;51.356;6.732;2022-12-31T06:41:04;4.35;;;0.40;;
66619;SDS011;53484;51.356;6.732;2022-12-31T06:43:32;4.22;;;0.43;;
66619;SDS011;53484;51.356;6.732;2022-12-31T06:45:59;3.63;;;0.80;;
66619;SDS011;53484;51.356;6.732;2022-12-31T06:48:26;4.90;;;0.60;;
66619;SDS011;53484;51.356;6.732;2022-12-31T06:50:52;4.15;;;0.50;;
66619;SDS011;53484;51.356;6.732;2022-12-31T06:53:18;3.42;;;0.40;;
66619;SDS011;53484;51.356;6.732;2022-12-31T06:55:46;7.18;;;0.80;;
66619;SDS011;53484;51.356;6.732;2022-12-31T06:58:13;3.47;;;0.50;;
66619;SDS011;53484;51.356;6.732;2022-12-31T07:00:41;3.35;;;0.70;;
66619;SDS011;53484;51.356;6.732;2022-12-31T07:03:22;2.33;;;0.70;;
66619;SDS011;53484;51.356;6.732;2022-12-31T07:05:51;4.30;;;0.70;;
66619;SDS011;53484;51.356;6.732;2022-12-31T07:08:29;2.10;;;0.50;;
66619;SDS011;53484;51.356;6.732;2022-12-31T07:10:59;2.93;;;0.80;;
66619;SDS011;53484;51.356;6.732;2022-12-31T07:13:41;2.83;;;0.50;;
66619;SDS011;53484;51.356;6.732;2022-12-31T07:16:15;3.85;;;0.70;;
66619;SDS011;53484;51.356;6.732;2022-12-31T07:18:47;2.08;;;0.73;;
66619;SDS011;53484;51.356;6.732;2022-12-31T07:21:17;1.88;;;0.50;;
66619;SDS011;53484;51.356;6.732;2022-12-31T07:23:45;4.50;;;0.90;;
66619;SDS011;53484;51.356;6.732;2022-12-31T07:26:14;3.67;;;0.60;;
66619;SDS011;53484;51.356;6.732;2022-12-31T07:28:46;4.95;;;0.80;;
66619;SDS011;53484;51.356;6.732;2022-12-31T07:31:19;2.63;;;0.50;;
66619;SDS011;53484;51.356;6.732;2022-12-31T07:33:50;3.88;;;0.57;;
66619;SDS011;53484;51.356;6.732;2022-12-31T07:36:26;4.87;;;0.60;;
66619;SDS011;53484;51.356;6.732;2022-12-31T07:38:58;3.78;;;0.60;;
66619;SDS011;53484;51.356;6.732;2022-12-31T07:41:33;3.05;;;0.55;;
66619;SDS011;53484;51.356;6.732;2022-12-31T07:44:06;3.38;;;0.55;;
66619;SDS011;53484;51.356;6.732;2022-12-31T07:46:38;3.15;;;0.70;;
66619;SDS011;53484;51.356;6.732;2022-12-31T07:49:08;5.23;;;0.87;;
66619;SDS011;53484;51.356;6.732;2022-12-31T07:51:35;4.68;;;0.60;;
66619;SDS011;53484;51.356;6.732;2022-12-31T07:54:02;2.60;;;0.73;;
66619;SDS011;53484;51.356;6.732;2022-12-31T07:56:28;3.78;;;0.80;;
66619;SDS011;53484;51.356;6.732;2022-12-31T07:58:58;4.22;;;0.68;;
66619;SDS011;53484;51.356;6.732;2022-12-31T08:01:28;3.63;;;0.80;;
66619;SDS011;53484;51.356;6.732;2022-12-31T08:03:59;4.18;;;0.68;;
66619;SDS011;53484;51.356;6.732;2022-12-31T08:06:28;4.05;;;1.10;;
66619;SDS011;53484;51.356;6.732;2022-12-31T08:09:01;2.30;;;0.65;;
66619;SDS011;53484;51.356;6.732;2022-12-31T08:11:29;2.15;;;0.60;;
66619;SDS011;53484;51.356;6.732;2022-12-31T08:13:58;3.77;;;0.50;;
66619;SDS011;53484;51.356;6.732;2022-12-31T08:16:25;5.45;;;0.80;;
66619;SDS011;53484;51.356;6.732;2022-12-31T08:18:52;2.83;;;0.60;;
66619;SDS011;53484;51.356;6.732;2022-12-31T08:21:23;4.22;;;0.68;;
66619;SDS011;53484;51.356;6.732;2022-12-31T08:23:53;3.42;;;0.63;;
66619;SDS011;53484;51.356;6.732;2022-12-31T08:26:25;3.27;;;0.60;;
66619;SDS011;53484;51.356;6.732;2022-12-31T08:28:54;3.03;;;0.70;;
66619;SDS011;53484;51.356;6.732;2022-12-31T08:31:23;5.82;;;0.77;;
66619;SDS011;53484;51.356;6.732;2022-12-31T08:33:53;5.40;;;0.70;;
66619;SDS011;53484;51.356;6.732;2022-12-31T08:36:23;3.00;;;0.50;;
66619;SDS011;53484;51.356;6.732;2022-12-31T08:38:53;2.73;;;0.63;;
66619;SDS011;53484;51.356;6.732;2022-12-31T08:41:23;2.63;;;0.60;;
66619;SDS011;53484;51.356;6.732;2022-12-31T08:43:55;4.65;;;0.60;;
66619;SDS011;53484;51.356;6.732;2022-12-31T08:46:25;5.15;;;0.82;;
66619;SDS011;53484;51.356;6.732;2022-12-31T08:48:53;2.95;;;0.80;;
66619;SDS011;53484;51.356;6.732;2022-12-31T08:51:20;3.47;;;0.50;;
66619;SDS011;53484;51.356;6.732;2022-12-31T08:53:48;3.05;;;0.63;;
66619;SDS011;53484;51.356;6.732;2022-12-31T08:56:19;4.15;;;0.90;;
66619;SDS011;53484;51.356;6.732;2022-12-31T08:58:48;3.88;;;0.70;;
66619;SDS011;53484;51.356;6.732;2022-12-31T09:01:16;6.22;;;1.00;;
66619;SDS011;53484;51.356;6.732;2022-12-31T09:03:55;5.37;;;0.93;;
66619;SDS011;53484;51.356;6.732;2022-12-31T09:06:25;4.07;;;1.13;;
66619;SDS011;53484;51.356;6.732;2022-12-31T09:08:56;5.30;;;0.93;;
66619;SDS011;53484;51.356;6.732;2022-12-31T09:11:28;3.15;;;0.70;;
66619;SDS011;53484;51.356;6.732;2022-12-31T09:13:59;2.05;;;0.63;;
66619;SDS011;53484;51.356;6.732;2022-12-31T09:16:28;4.73;;;0.80;;
66619;SDS011;53484;51.356;6.732;2022-12-31T09:18:57;3.78;;;1.00;;
66619;SDS011;53484;51.356;6.732;2022-12-31T09:21:23;2.80;;;0.80;;
66619;SDS011;53484;51.356;6.732;2022-12-31T09:23:50;5.18;;;1.15;;
66619;SDS011;53484;51.356;6.732;2022-12-31T09:26:23;2.38;;;0.77;;
66619;SDS011;53484;51.356;6.732;2022-12-31T09:28:56;3.90;;;0.80;;
66619;SDS011;53484;51.356;6.732;2022-12-31T09:31:29;4.00;;;0.80;;
66619;SDS011;53484;51.356;6.732;2022-12-31T09:33:58;5.07;;;0.98;;
66619;SDS011;53484;51.356;6.732;2022-12-31T09:36:27;5.07;;;0.93;;
66619;SDS011;53484;51.356;6.732;2022-12-31T09:38:58;5.00;;;0.90;;
66619;SDS011;53484;51.356;6.732;2022-12-31T09:41:41;3.93;;;1.03;;
66619;SDS011;53484;51.356;6.732;2022-12-31T09:47:10;4.57;;;1.08;;
66619;SDS011;53484;51.356;6.732;2022-12-31T09:52:28;5.63;;;1.10;;
66619;SDS011;53484;51.356;6.732;2022-12-31T09:54:58;6.83;;;0.80;;
66619;SDS011;53484;51.356;6.732;2022-12-31T09:57:33;3.10;;;0.85;;
66619;SDS011;53484;51.356;6.732;2022-12-31T10:00:02;4.78;;;1.23;;
66619;SDS011;53484;51.356;6.732;2022-12-31T10:02:40;3.65;;;1.23;;
66619;SDS011;53484;51.356;6.732;2022-12-31T10:05:14;4.15;;;0.93;;
66619;SDS011;53484;51.356;6.732;2022-12-31T10:07:48;7.83;;;1.10;;
66619;SDS011;53484;51.356;6.732;2022-12-31T10:10:17;5.32;;;1.15;;
66619;SDS011;53484;51.356;6.732;2022-12-31T10:13:03;4.93;;;1.23;;
66619;SDS011;53484;51.356;6.732;2022-12-31T10:15:48;4.43;;;0.90;;
66619;SDS011;53484;51.356;6.732;2022-12-31T10:18:22;4.60;;;0.93;;
66619;SDS011;53484;51.356;6.732;2022-12-31T10:20:58;6.43;;;1.20;;
66619;SDS011;53484;51.356;6.732;2022-12-31T10:23:40;4.45;;;0.80;;
66619;SDS011;53484;51.356;6.732;2022-12-31T10:26:17;5.60;;;0.90;;
66619;SDS011;53484;51.356;6.732;2022-12-31T10:28:53;5.50;;;1.25;;
66619;SDS011;53484;51.356;6.732;2022-12-31T10:31:28;3.75;;;1.08;;
66619;SDS011;53484;51.356;6.732;2022-12-31T10:34:03;3.27;;;0.80;;
66619;SDS011;53484;51.356;6.732;2022-12-31T10:36:38;4.85;;;0.80;;
66619;SDS011;53484;51.356;6.732;2022-12-31T10:39:11;4.03;;;1.08;;
66619;SDS011;53484;51.356;6.732;2022-12-31T10:42:04;2.78;;;0.75;;
66619;SDS011;53484;51.356;6.732;2022-12-31T10:44:48;5.05;;;0.90;;
66619;SDS011;53484;51.356;6.732;2022-12-31T10:47:25;6.40;;;1.27;;
66619;SDS011;53484;51.356;6.732;2022-12-31T10:52:50;6.50;;;0.90;;
66619;SDS011;53484;51.356;6.732;2022-12-31T11:00:55;6.93;;;1.00;;
66619;SDS011;53484;51.356;6.732;2022-12-31T11:03:36;4.85;;;0.75;;
66619;SDS011;53484;51.356;6.732;2022-12-31T11:09:01;4.72;;;0.90;;
66619;SDS011;53484;51.356;6.732;2022-12-31T11:11:36;6.43;;;1.15;;
66619;SDS011;53484;51.356;6.732;2022-12-31T11:14:16;5.20;;;1.40;;
66619;SDS011;53484;51.356;6.732;2022-12-31T11:16:51;7.18;;;1.00;;
66619;SDS011;53484;51.356;6.732;2022-12-31T11:19:23;6.53;;;1.15;;
66619;SDS011;53484;51.356;6.732;2022-12-31T11:21:59;6.38;;;0.80;;
66619;SDS011;53484;51.356;6.732;2022-12-31T11:24:32;5.07;;;1.00;;
66619;SDS011;53484;51.356;6.732;2022-12-31T11:27:06;5.33;;;0.80;;
66619;SDS011;53484;51.356;6.732;2022-12-31T11:29:38;4.93;;;1.02;;
66619;SDS011;53484;51.356;6.732;2022-12-31T11:32:14;4.95;;;1.40;;
66619;SDS011;53484;51.356;6.732;2022-12-31T11:34:52;4.60;;;0.90;;
66619;SDS011;53484;51.356;6.732;2022-12-31T11:37:27;4.78;;;0.80;;
66619;SDS011;53484;51.356;6.732;2022-12-31T11:39:58;6.23;;;1.20;;
66619;SDS011;53484;51.356;6.732;2022-12-31T11:42:31;3.70;;;0.85;;
66619;SDS011;53484;51.356;6.732;2022-12-31T11:45:11;3.78;;;0.88;;
66619;SDS011;53484;51.356;6.732;2022-12-31T11:50:30;5.78;;;0.95;;
66619;SDS011;53484;51.356;6.732;2022-12-31T11:53:01;4.03;;;0.77;;
66619;SDS011;53484;51.356;6.732;2022-12-31T11:55:31;5.03;;;1.15;;
66619;SDS011;53484;51.356;6.732;2022-12-31T11:58:07;5.75;;;1.10;;
66619;SDS011;53484;51.356;6.732;2022-12-31T12:00:35;7.90;;;0.93;;
66619;SDS011;53484;51.356;6.732;2022-12-31T12:03:02;4.93;;;1.10;;
66619;SDS011;53484;51.356;6.732;2022-12-31T12:05:30;4.63;;;0.90;;
66619;SDS011;53484;51.356;6.732;2022-12-31T12:07:57;4.15;;;0.70;;
66619;SDS011;53484;51.356;6.732;2022-12-31T12:10:25;5.57;;;1.00;;
66619;SDS011;53484;51.356;6.732;2022-12-31T12:12:53;5.65;;;1.00;;
66619;SDS011;53484;51.356;6.732;2022-12-31T12:15:20;8.13;;;0.80;;
66619;SDS011;53484;51.356;6.732;2022-12-31T12:17:49;7.80;;;0.87;;
66619;SDS011;53484;51.356;6.732;2022-12-31T12:20:17;5.25;;;1.08;;
66619;SDS011;53484;51.356;6.732;2022-12-31T12:22:50;7.57;;;0.88;;
66619;SDS011;53484;51.356;6.732;2022-12-31T12:25:18;5.07;;;1.40;;
66619;SDS011;53484;51.356;6.732;2022-12-31T12:27:45;7.40;;;0.90;;
66619;SDS011;53484;51.356;6.732;2022-12-31T12:30:17;10.23;;;0.90;;
66619;SDS011;53484;51.356;6.732;2022-12-31T12:32:49;5.07;;;0.95;;
66619;SDS011;53484;51.356;6.732;2022-12-31T12:35:18;5.22;;;1.10;;
66619;SDS011;53484;51.356;6.732;2022-12-31T12:37:58;6.45;;;1.10;;
66619;SDS011;53484;51.356;6.732;2022-12-31T12:40:24;3.70;;;1.02;;
66619;SDS011;53484;51.356;6.732;2022-12-31T12:42:51;5.47;;;0.87;;
66619;SDS011;53484;51.356;6.732;2022-12-31T12:45:18;5.93;;;1.23;;
66619;SDS011;53484;51.356;6.732;2022-12-31T12:47:46;5.43;;;0.85;;
66619;SDS011;53484;51.356;6.732;2022-12-31T12:50:13;4.68;;;1.25;;
66619;SDS011;53484;51.356;6.732;2022-12-31T12:52:45;5.10;;;1.10;;
66619;SDS011;53484;51.356;6.732;2022-12-31T12:55:18;5.30;;;0.80;;
66619;SDS011;53484;51.356;6.732;2022-12-31T12:57:47;4.22;;;1.23;;
66619;SDS011;53484;51.356;6.732;2022-12-31T13:00:16;4.82;;;1.10;;
66619;SDS011;53484;51.356;6.732;2022-12-31T13:02:48;7.13;;;1.33;;
66619;SDS011;53484;51.356;6.732;2022-12-31T13:05:20;5.88;;;1.13;;
66619;SDS011;53484;51.356;6.732;2022-12-31T13:07:51;3.60;;;0.90;;
66619;SDS011;53484;51.356;6.732;2022-12-31T13:10:25;4.93;;;1.02;;
66619;SDS011;53484;51.356;6.732;2022-12-31T13:12:55;5.05;;;1.17;;
66619;SDS011;53484;51.356;6.732;2022-12-31T13:15:26;4.47;;;1.02;;
66619;SDS011;53484;51.356;6.732;2022-12-31T13:17:56;4.55;;;0.93;;
66619;SDS011;53484;51.356;6.732;2022-12-31T13:20:25;4.63;;;1.03;;
66619;SDS011;53484;51.356;6.732;2022-12-31T13:22:55;3.95;;;0.90;;
66619;SDS011;53484;51.356;6.732;2022-12-31T13:25:27;7.25;;;1.10;;
66619;SDS011;53484;51.356;6.732;2022-12-31T13:27:57;4.43;;;0.88;;
66619;SDS011;53484;51.356;6.732;2022-12-31T13:30:27;5.47;;;0.90;;
66619;SDS011;53484;51.356;6.732;2022-12-31T13:32:56;4.27;;;1.10;;
66619;SDS011;53484;51.356;6.732;2022-12-31T13:35:26;3.90;;;0.90;;
66619;SDS011;53484;51.356;6.732;2022-12-31T13:37:53;5.07;;;1.10;;
66619;SDS011;53484;51.356;6.732;2022-12-31T13:40:24;4.40;;;1.02;;
66619;SDS011;53484;51.356;6.732;2022-12-31T13:42:53;7.53;;;1.33;;
66619;SDS011;53484;51.356;6.732;2022-12-31T13:45:23;7.07;;;0.90;;
66619;SDS011;53484;51.356;6.732;2022-12-31T13:47:52;4.35;;;0.80;;
66619;SDS011;53484;51.356;6.732;2022-12-31T13:50:21;7.72;;;0.90;;
66619;SDS011;53484;51.356;6.732;2022-12-31T13:52:50;4.53;;;0.75;;
66619;SDS011;53484;51.356;6.732;2022-12-31T13:55:19;5.78;;;0.90;;
66619;SDS011;53484;51.356;6.732;2022-12-31T13:57:47;5.97;;;1.10;;
66619;SDS011;53484;51.356;6.732;2022-12-31T14:00:22;7.07;;;1.13;;
66619;SDS011;53484;51.356;6.732;2022-12-31T14:03:01;5.00;;;1.25;;
66619;SDS011;53484;51.356;6.732;2022-12-31T14:05:32;5.47;;;1.10;;
66619;SDS011;53484;51.356;6.732;2022-12-31T14:08:00;5.00;;;1.48;;
66619;SDS011;53484;51.356;6.732;2022-12-31T14:10:30;6.83;;;1.17;;
66619;SDS011;53484;51.356;6.732;2022-12-31T14:13:00;3.83;;;1.13;;
66619;SDS011;53484;51.356;6.732;2022-12-31T14:15:34;8.55;;;1.60;;
66619;SDS011;53484;51.356;6.732;2022-12-31T14:18:03;5.32;;;1.10;;
66619;SDS011;53484;51.356;6.732;2022-12-31T14:20:33;6.55;;;1.38;;
66619;SDS011;53484;51.356;6.732;2022-12-31T14:23:04;4.47;;;1.00;;
66619;SDS011;53484;51.356;6.732;2022-12-31T14:25:35;5.95;;;1.20;;
66619;SDS011;53484;51.356;6.732;2022-12-31T14:28:03;6.47;;;1.35;;
66619;SDS011;53484;51.356;6.732;2022-12-31T14:30:31;7.10;;;1.20;;
66619;SDS011;53484;51.356;6.732;2022-12-31T14:35:52;5.80;;;1.30;;
66619;SDS011;53484;51.356;6.732;2022-12-31T14:38:23;6.20;;;1.30;;
66619;SDS011;53484;51.356;6.732;2022-12-31T14:40:54;7.60;;;1.95;;
66619;SDS011;53484;51.356;6.732;2022-12-31T14:43:24;8.80;;;1.50;;
66619;SDS011;53484;51.356;6.732;2022-12-31T14:45:55;9.27;;;1.50;;
66619;SDS011;53484;51.356;6.732;2022-12-31T14:48:28;6.40;;;1.20;;
66619;SDS011;53484;51.356;6.732;2022-12-31T14:50:59;6.55;;;1.23;;
66619;SDS011;53484;51.356;6.732;2022-12-31T14:53:27;9.43;;;1.48;;
66619;SDS011;53484;51.356;6.732;2022-12-31T14:55:57;6.35;;;1.40;;
66619;SDS011;53484;51.356;6.732;2022-12-31T14:58:28;8.73;;;1.30;;
66619;SDS011;53484;51.356;6.732;2022-12-31T15:00:56;7.00;;;1.50;;
66619;SDS011;53484;51.356;6.732;2022-12-31T15:03:23;7.28;;;1.58;;
66619;SDS011;53484;51.356;6.732;2022-12-31T15:05:50;7.38;;;1.40;;
66619;SDS011;53484;51.356;6.732;2022-12-31T15:08:24;6.80;;;1.92;;
66619;SDS011;53484;51.356;6.732;2022-12-31T15:10:59;7.97;;;1.50;;
66619;SDS011;53484;51.356;6.732;2022-12-31T15:13:30;3.93;;;1.33;;
66619;SDS011;53484;51.356;6.732;2022-12-31T15:16:07;8.27;;;1.40;;
66619;SDS011;53484;51.356;6.732;2022-12-31T15:18:44;7.03;;;1.23;;
66619;SDS011;53484;51.356;6.732;2022-12-31T15:21:29;4.68;;;1.25;;
66619;SDS011;53484;51.356;6.732;2022-12-31T15:24:00;7.32;;;1.50;;
66619;SDS011;53484;51.356;6.732;2022-12-31T15:26:27;7.20;;;1.93;;